createdAt,value
2023-02-18T00:03:42.401Z,102441.56
2023-02-18T00:08:48.179Z,102434.31
2023-02-18T00:13:59.189Z,102440.50
2023-02-18T00:19:06.036Z,102435.06
2023-02-18T00:24:12.445Z,102419.84
2023-02-18T00:29:16.259Z,102406.28
2023-02-18T00:34:20.117Z,102417.34
2023-02-18T00:39:23.952Z,102407.22
2023-02-18T00:44:28.900Z,102412.59
2023-02-18T00:49:34.343Z,102430.03
2023-02-18T00:54:39.919Z,102406.41
2023-02-18T00:59:43.771Z,102389.06
2023-02-18T01:04:47.602Z,102306.72
2023-02-18T01:09:51.838Z,102396.47
2023-02-18T01:14:55.703Z,102408.94
2023-02-18T01:20:01.712Z,102381.72
2023-02-18T01:25:07.340Z,102395.75
2023-02-18T01:30:15.896Z,102391.28
2023-02-18T01:35:21.854Z,102382.44
2023-02-18T01:40:29.153Z,102393.16
2023-02-18T01:45:39.707Z,102393.16
2023-02-18T01:50:52.163Z,102405.72
2023-02-18T01:55:56.524Z,102385.78
2023-02-18T02:01:02.579Z,102395.72
2023-02-18T02:06:15.813Z,102403.44
2023-02-18T02:11:33.750Z,102386.53
2023-02-18T02:16:37.543Z,102387.13
2023-02-18T02:22:12.764Z,102380.69
2023-02-18T02:27:23.356Z,102382.09
2023-02-18T02:32:45.791Z,102384.88
2023-02-18T02:38:01.133Z,102381.28
2023-02-18T02:43:30.353Z,102390.22
2023-02-18T02:48:38.996Z,102377.47
2023-02-18T02:53:45.567Z,102368.75
2023-02-18T02:59:07.293Z,102353.78
2023-02-18T03:04:44.600Z,102354.06
2023-02-18T03:10:04.620Z,102356.91
2023-02-18T03:15:27.202Z,102345.41
2023-02-18T03:20:47.570Z,102342.19
2023-02-18T03:25:52.500Z,102338.56
2023-02-18T03:31:14.154Z,102340.81
2023-02-18T03:36:22.182Z,102353.28
2023-02-18T03:41:25.991Z,102356.69
2023-02-18T03:46:31.307Z,102338.06
2023-02-18T03:51:35.479Z,102337.97
2023-02-18T03:56:39.490Z,102306.16
2023-02-18T04:01:43.533Z,102294.88
2023-02-18T04:06:47.459Z,102289.56
2023-02-18T04:11:51.381Z,102292.38
2023-02-18T04:16:55.244Z,102271.44
2023-02-18T04:21:59.219Z,102278.38
2023-02-18T04:27:05.143Z,102267.19
2023-02-18T04:32:09.644Z,102269.72
2023-02-18T04:37:13.666Z,102265.63
2023-02-18T04:42:17.648Z,102265.44
2023-02-18T04:47:21.648Z,102253.75
2023-02-18T04:52:25.423Z,102254.63
2023-02-18T04:57:29.396Z,102253.19
2023-02-18T05:02:33.943Z,102238.34
2023-02-18T05:07:38.044Z,102221.25
2023-02-18T05:12:42.188Z,102233.69
2023-02-18T05:17:46.106Z,102206.44
2023-02-18T05:22:50.182Z,102217.97
2023-02-18T05:27:54.212Z,102222.63
2023-02-18T05:32:58.049Z,102157.94
2023-02-18T05:38:02.259Z,102195.13
2023-02-18T05:43:05.946Z,102188.69
2023-02-18T05:48:10.191Z,102185.13
2023-02-18T05:53:15.156Z,102166.94
2023-02-18T05:58:20.771Z,102127.16
2023-02-18T06:03:24.835Z,102156.06
2023-02-18T06:08:28.844Z,102157.34
2023-02-18T06:13:32.888Z,102160.00
2023-02-18T06:18:36.980Z,102145.75
2023-02-18T06:23:41.041Z,102153.84
2023-02-18T06:28:45.060Z,102139.06
2023-02-18T06:33:48.815Z,102123.38
2023-02-18T06:38:52.865Z,102111.06
2023-02-18T06:43:56.749Z,102109.72
2023-02-18T06:49:01.071Z,102112.59
2023-02-18T06:54:06.528Z,102101.13
2023-02-18T06:59:10.817Z,102093.13
2023-02-18T07:04:14.967Z,102078.19
2023-02-18T07:09:18.774Z,102080.22
2023-02-18T07:14:25.148Z,102073.66
2023-02-18T07:19:29.146Z,102073.13
2023-02-18T07:24:33.119Z,102064.03
2023-02-18T07:29:36.902Z,101980.25
2023-02-18T07:34:40.965Z,102047.47
2023-02-18T07:39:46.772Z,102057.16
2023-02-18T07:44:50.564Z,102015.66
2023-02-18T07:49:54.637Z,102034.78
2023-02-18T07:54:58.482Z,102032.41
2023-02-18T08:00:02.479Z,101955.28
2023-02-18T08:05:16.206Z,102038.56
2023-02-18T08:10:20.252Z,102057.31
2023-02-18T08:15:24.679Z,102048.78
2023-02-18T08:20:30.789Z,102037.72
2023-02-18T08:25:35.166Z,102032.69
2023-02-18T08:30:39.093Z,102024.41
2023-02-18T08:35:43.938Z,102022.94
2023-02-18T08:40:48.481Z,102020.22
2023-02-18T08:45:53.269Z,102003.16
2023-02-18T08:50:57.270Z,101976.63
2023-02-18T08:56:01.272Z,102005.72
2023-02-18T09:01:08.177Z,101971.72
2023-02-18T09:06:12.626Z,101986.44
2023-02-18T09:11:16.966Z,101924.19
2023-02-18T09:16:21.603Z,101987.31
2023-02-18T09:21:25.772Z,101963.53
2023-02-18T09:26:29.778Z,101978.09
2023-02-18T09:31:33.935Z,101902.75
2023-02-18T09:36:39.187Z,101943.22
2023-02-18T09:41:45.304Z,101964.75
2023-02-18T09:47:03.529Z,101942.72
2023-02-18T09:52:12.006Z,101938.47
2023-02-18T09:57:36.833Z,101933.41
2023-02-18T10:02:57.942Z,101910.47
2023-02-18T10:08:10.094Z,101898.38
2023-02-18T10:13:21.850Z,101901.13
2023-02-18T10:18:36.954Z,101898.53
2023-02-18T10:23:45.116Z,101880.50
2023-02-18T10:28:49.231Z,101871.84
2023-02-18T10:33:59.291Z,101859.06
2023-02-18T10:39:08.534Z,101850.50
2023-02-18T10:44:13.931Z,101847.03
2023-02-18T10:49:43.828Z,101831.69
2023-02-18T10:55:07.285Z,101826.56
2023-02-18T11:00:24.959Z,101818.03
2023-02-18T11:05:29.784Z,101808.66
2023-02-18T11:10:36.794Z,101808.41
2023-02-18T11:16:07.353Z,101787.91
2023-02-18T11:21:23.178Z,101781.69
2023-02-18T11:26:38.120Z,101780.63
2023-02-18T11:31:48.111Z,101764.31
2023-02-18T11:36:53.632Z,101752.03
2023-02-18T11:42:07.898Z,101757.19
2023-02-18T11:47:15.791Z,101757.00
2023-02-18T11:52:21.840Z,101763.59
2023-02-18T11:57:27.092Z,101795.38
2023-02-18T12:02:31.174Z,101797.66
2023-02-18T12:07:46.400Z,101801.31
2023-02-18T12:13:03.874Z,101798.31
2023-02-18T12:18:17.145Z,101784.47
2023-02-18T12:23:42.944Z,101787.47
2023-02-18T12:29:07.402Z,101782.13
2023-02-18T12:34:52.469Z,101785.16
2023-02-18T12:40:21.929Z,101773.88
2023-02-18T12:46:10.684Z,101732.88
2023-02-18T12:51:30.476Z,101718.00
2023-02-18T12:56:59.441Z,101720.47
2023-02-18T13:02:08.917Z,101736.78
2023-02-18T13:07:20.427Z,101748.78
2023-02-18T13:12:39.483Z,101752.78
2023-02-18T13:17:45.067Z,101747.84
2023-02-18T13:22:51.114Z,101716.44
2023-02-18T13:28:19.994Z,101738.50
2023-02-18T13:33:37.349Z,101719.06
2023-02-18T13:39:05.434Z,101705.25
2023-02-18T13:44:30.204Z,101719.25
2023-02-18T13:49:36.904Z,101701.56
2023-02-18T13:54:51.476Z,101690.66
2023-02-18T14:00:03.540Z,101700.38
2023-02-18T14:05:09.185Z,101694.97
2023-02-18T14:10:19.342Z,101718.16
2023-02-18T14:15:23.310Z,101716.34
2023-02-18T14:20:38.588Z,101700.78
2023-02-18T14:25:43.517Z,101701.06
2023-02-18T14:30:48.182Z,101695.66
2023-02-18T14:36:01.921Z,101616.09
2023-02-18T14:41:35.046Z,101690.75
2023-02-18T14:47:07.128Z,101660.13
2023-02-18T14:52:28.102Z,101656.03
2023-02-18T14:57:49.763Z,101641.53
2023-02-18T15:02:56.337Z,101634.34
2023-02-18T15:08:01.534Z,101600.81
2023-02-18T15:13:09.647Z,101602.38
2023-02-18T15:18:29.625Z,101514.59
2023-02-18T15:23:38.083Z,101625.22
2023-02-18T15:29:05.117Z,101611.44
2023-02-18T15:34:27.418Z,101605.09
2023-02-18T15:39:36.204Z,101609.03
2023-02-18T15:44:50.065Z,101605.84
2023-02-18T15:49:58.128Z,101597.72
2023-02-18T15:55:15.359Z,101492.53
2023-02-18T16:00:29.539Z,101595.25
2023-02-18T16:05:39.763Z,101560.19
2023-02-18T16:10:50.931Z,101544.22
2023-02-18T16:15:55.281Z,101543.81
2023-02-18T16:21:18.897Z,101539.09
2023-02-18T16:26:45.591Z,101545.09
2023-02-18T16:31:49.591Z,101543.97
2023-02-18T16:37:12.908Z,101533.78
2023-02-18T16:42:16.758Z,101552.28
2023-02-18T16:47:21.370Z,101510.66
2023-02-18T16:52:25.237Z,101534.47
2023-02-18T16:57:29.008Z,101506.91
2023-02-18T17:02:33.035Z,101515.41
2023-02-18T17:07:37.631Z,101503.69
2023-02-18T17:12:43.483Z,101458.09
2023-02-18T17:17:47.288Z,101388.00
2023-02-18T17:22:51.332Z,101460.84
2023-02-18T17:27:55.358Z,101461.44
2023-02-18T17:33:03.290Z,101465.78
2023-02-18T17:38:19.020Z,101444.94
2023-02-18T17:43:26.111Z,101466.19
2023-02-18T17:48:30.431Z,101453.25
2023-02-18T17:53:35.855Z,101460.25
2023-02-18T17:58:39.737Z,101429.75
2023-02-18T18:03:43.836Z,101458.88
2023-02-18T18:08:49.223Z,101448.88
2023-02-18T18:13:53.946Z,101462.81
2023-02-18T18:18:57.713Z,101359.72
2023-02-18T18:24:01.911Z,101468.69
2023-02-18T18:29:05.791Z,101469.84
2023-02-18T18:34:10.826Z,101458.44
2023-02-18T18:39:15.521Z,101457.59
2023-02-18T18:44:19.557Z,101464.94
2023-02-18T18:49:23.377Z,101446.88
2023-02-18T18:54:27.109Z,101446.53
2023-02-18T18:59:32.500Z,101451.75
2023-02-18T19:04:36.447Z,101455.31
2023-02-18T19:09:40.387Z,101445.13
2023-02-18T19:14:45.074Z,101464.78
2023-02-18T19:19:48.840Z,101436.69
2023-02-18T19:24:52.704Z,101458.81
2023-02-18T19:29:56.991Z,101461.09
2023-02-18T19:35:00.855Z,101448.34
2023-02-18T19:40:09.546Z,101442.03
2023-02-18T19:45:14.678Z,101455.84
2023-02-18T19:50:18.632Z,101455.25
2023-02-18T19:55:23.781Z,101451.56
2023-02-18T20:00:27.613Z,101444.97
2023-02-18T20:05:31.595Z,101445.03
2023-02-18T20:10:36.180Z,101447.56
2023-02-18T20:15:41.792Z,101459.06
2023-02-18T20:20:49.928Z,101449.34
2023-02-18T20:25:53.886Z,101425.06
2023-02-18T20:31:09.129Z,101447.28
2023-02-18T20:36:15.081Z,101424.66
2023-02-18T20:41:20.892Z,101434.94
2023-02-18T20:46:25.453Z,101424.84
2023-02-18T20:51:29.259Z,101440.25
2023-02-18T20:56:33.180Z,101441.22
2023-02-18T21:01:37.728Z,101421.94
2023-02-18T21:06:42.816Z,101427.22
2023-02-18T21:11:46.744Z,101407.72
2023-02-18T21:16:50.740Z,101430.03
2023-02-18T21:21:54.706Z,101422.59
2023-02-18T21:26:58.819Z,101411.81
2023-02-18T21:32:02.823Z,101395.81
2023-02-18T21:37:06.625Z,101397.81
2023-02-18T21:42:11.589Z,101405.63
2023-02-18T21:47:15.665Z,101404.88
2023-02-18T21:52:19.477Z,101412.69
2023-02-18T21:57:24.061Z,101397.53
2023-02-18T22:02:31.649Z,101405.28
2023-02-18T22:07:36.258Z,101410.47
2023-02-18T22:12:40.129Z,101403.75
2023-02-18T22:17:44.266Z,101406.31
2023-02-18T22:22:48.043Z,101395.34
2023-02-18T22:27:51.914Z,101408.09
2023-02-18T22:32:55.774Z,101397.19
2023-02-18T22:37:59.674Z,101390.47
2023-02-18T22:43:04.259Z,101394.75
2023-02-18T22:48:08.253Z,101396.47
2023-02-18T22:53:12.114Z,101396.50
2023-02-18T22:58:15.991Z,101390.63
2023-02-18T23:03:19.705Z,101317.38
2023-02-18T23:08:25.520Z,101383.91
2023-02-18T23:13:29.693Z,101378.84
2023-02-18T23:18:36.245Z,101395.88
2023-02-18T23:23:40.353Z,101377.22
2023-02-18T23:28:51.130Z,101391.69
2023-02-18T23:33:58.115Z,101384.06
2023-02-18T23:39:09.308Z,101376.41
2023-02-18T23:44:18.518Z,101378.09
2023-02-18T23:49:25.479Z,101382.31
2023-02-18T23:54:29.278Z,101377.19
2023-02-18T23:59:34.229Z,101384.00
